createdAt,value
2023-05-10T00:02:19.422Z,100809.18
2023-05-10T00:04:46.328Z,100808.64
2023-05-10T00:07:13.235Z,100811.48
2023-05-10T00:09:40.415Z,100808.27
2023-05-10T00:12:07.530Z,100808.83
2023-05-10T00:14:34.388Z,100809.73
2023-05-10T00:17:02.126Z,100806.98
2023-05-10T00:19:29.049Z,100810.15
2023-05-10T00:21:56.349Z,100808.93
2023-05-10T00:24:23.093Z,100807.00
2023-05-10T00:26:49.824Z,100805.59
2023-05-10T00:29:16.515Z,100802.21
2023-05-10T00:31:43.306Z,100802.41
2023-05-10T00:34:10.609Z,100803.45
2023-05-10T00:36:37.636Z,100803.58
2023-05-10T00:39:04.775Z,100801.39
2023-05-10T00:41:33.094Z,100797.67
2023-05-10T00:44:01.360Z,100798.89
2023-05-10T00:46:28.532Z,100793.57
2023-05-10T00:48:55.354Z,100796.74
2023-05-10T00:51:22.112Z,100794.96
2023-05-10T00:53:48.972Z,100793.20
2023-05-10T00:56:16.349Z,100793.75
2023-05-10T00:58:43.013Z,100789.34
2023-05-10T01:01:10.125Z,100796.79
2023-05-10T01:03:37.199Z,100796.12
2023-05-10T01:06:04.677Z,100798.59
2023-05-10T01:08:32.493Z,100800.19
2023-05-10T01:10:59.264Z,100799.12
2023-05-10T01:13:33.091Z,100802.17
2023-05-10T01:16:02.360Z,100799.38
2023-05-10T01:18:30.463Z,100800.63
2023-05-10T01:21:17.113Z,100796.55
2023-05-10T01:24:13.500Z,100796.76
2023-05-10T01:27:08.247Z,100795.33
2023-05-10T01:30:13.569Z,100796.00
2023-05-10T01:33:01.774Z,100788.19
2023-05-10T01:35:54.823Z,100793.13
2023-05-10T01:38:51.091Z,100789.76
2023-05-10T01:41:41.966Z,100784.62
2023-05-10T01:44:08.781Z,100783.89
2023-05-10T01:46:40.054Z,100784.39
2023-05-10T01:49:14.463Z,100779.42
2023-05-10T01:51:45.483Z,100778.57
2023-05-10T01:54:12.576Z,100778.80
2023-05-10T01:56:39.196Z,100784.02
2023-05-10T01:59:13.788Z,100784.40
2023-05-10T02:01:40.889Z,100785.14
2023-05-10T02:04:08.404Z,100784.25
2023-05-10T02:06:36.450Z,100782.14
2023-05-10T02:09:03.126Z,100786.04
2023-05-10T02:11:30.845Z,100785.86
2023-05-10T02:13:57.961Z,100780.73
2023-05-10T02:16:28.381Z,100782.70
2023-05-10T02:18:55.351Z,100781.81
2023-05-10T02:21:21.998Z,100780.92
2023-05-10T02:23:49.272Z,100783.41
2023-05-10T02:26:16.146Z,100784.98
2023-05-10T02:28:43.566Z,100785.67
2023-05-10T02:31:11.027Z,100784.06
2023-05-10T02:33:41.767Z,100784.60
2023-05-10T02:36:09.221Z,100784.42
2023-05-10T02:38:37.285Z,100785.65
2023-05-10T02:41:04.598Z,100783.54
2023-05-10T02:43:32.751Z,100783.54
2023-05-10T02:45:59.612Z,100781.94
2023-05-10T02:48:26.719Z,100784.06
2023-05-10T02:50:53.494Z,100786.55
2023-05-10T02:53:23.404Z,100785.86
2023-05-10T02:55:52.440Z,100784.98
2023-05-10T02:58:22.807Z,100783.75
2023-05-10T03:00:49.982Z,100779.85
2023-05-10T03:03:17.471Z,100783.77
2023-05-10T03:05:44.330Z,100784.66
2023-05-10T03:08:11.100Z,100786.80
2023-05-10T03:10:42.364Z,100788.04
2023-05-10T03:13:38.656Z,100787.69
2023-05-10T03:16:09.470Z,100790.36
2023-05-10T03:18:44.072Z,100791.59
2023-05-10T03:21:12.902Z,100785.04
2023-05-10T03:24:00.671Z,100782.92
2023-05-10T03:26:28.563Z,100783.64
2023-05-10T03:29:02.690Z,100780.10
2023-05-10T03:31:29.855Z,100777.42
2023-05-10T03:33:56.606Z,100777.23
2023-05-10T03:36:25.450Z,100779.67
2023-05-10T03:38:52.512Z,100781.55
2023-05-10T03:41:19.180Z,100777.89
2023-05-10T03:43:45.809Z,100777.73
2023-05-10T03:46:13.195Z,100783.53
2023-05-10T03:48:40.164Z,100780.33
2023-05-10T03:51:08.410Z,100776.70
2023-05-10T03:53:36.020Z,100777.68
2023-05-10T03:56:04.092Z,100779.09
2023-05-10T03:58:30.849Z,100781.52
2023-05-10T04:00:58.778Z,100779.91
2023-05-10T04:03:26.874Z,100777.95
2023-05-10T04:06:01.547Z,100780.95
2023-05-10T04:08:28.935Z,100782.73
2023-05-10T04:10:55.564Z,100783.09
2023-05-10T04:13:31.368Z,100790.19
2023-05-10T04:15:58.855Z,100792.67
2023-05-10T04:18:25.889Z,100793.04
2023-05-10T04:20:52.590Z,100793.74
2023-05-10T04:23:19.552Z,100793.17
2023-05-10T04:25:46.311Z,100788.66
2023-05-10T04:28:13.142Z,100792.88
2023-05-10T04:30:40.920Z,100796.20
2023-05-10T04:33:07.897Z,100795.95
2023-05-10T04:35:35.650Z,100797.13
2023-05-10T04:38:02.316Z,100799.20
2023-05-10T04:40:29.050Z,100798.92
2023-05-10T04:42:55.970Z,100797.55
2023-05-10T04:45:22.736Z,100796.17
2023-05-10T04:47:49.516Z,100796.06
2023-05-10T04:57:58.358Z,100794.02
2023-05-10T05:00:25.785Z,100797.21
2023-05-10T05:02:52.785Z,100794.59
2023-05-10T05:05:19.835Z,100796.16
2023-05-10T05:07:46.909Z,100788.69
2023-05-10T05:10:13.819Z,100786.60
2023-05-10T05:12:40.630Z,100782.10
2023-05-10T05:15:10.361Z,100780.05
2023-05-10T05:17:37.394Z,100780.85
2023-05-10T05:20:04.919Z,100772.03
2023-05-10T05:22:31.819Z,100771.58
2023-05-10T05:24:59.345Z,100765.34
2023-05-10T05:27:27.602Z,100765.81
2023-05-10T05:29:55.316Z,100756.80
2023-05-10T05:32:22.834Z,100755.13
2023-05-10T05:34:49.750Z,100750.47
2023-05-10T05:37:17.360Z,100750.63
2023-05-10T05:39:44.395Z,100749.91
2023-05-10T05:42:12.465Z,100753.16
2023-05-10T05:44:39.413Z,100748.63
2023-05-10T05:47:06.778Z,100741.98
2023-05-10T05:49:34.015Z,100736.44
2023-05-10T05:52:02.106Z,100733.59
2023-05-10T05:54:29.031Z,100732.71
2023-05-10T05:56:57.668Z,100729.25
2023-05-10T05:59:25.701Z,100727.77
2023-05-10T06:01:52.654Z,100727.29
2023-05-10T06:04:19.743Z,100728.31
2023-05-10T06:06:46.622Z,100732.30
2023-05-10T06:09:13.427Z,100725.72
2023-05-10T06:11:40.241Z,100724.35
2023-05-10T06:14:08.395Z,100726.52
2023-05-10T06:16:35.616Z,100723.70
2023-05-10T06:19:03.514Z,100720.61
2023-05-10T06:21:31.132Z,100720.95
2023-05-10T06:23:58.171Z,100714.98
2023-05-10T06:26:25.023Z,100710.80
2023-05-10T06:28:51.924Z,100716.38
2023-05-10T06:31:18.905Z,100711.59
2023-05-10T06:33:45.811Z,100714.72
2023-05-10T06:36:12.757Z,100719.20
2023-05-10T06:38:39.739Z,100720.56
2023-05-10T06:41:06.659Z,100723.25
2023-05-10T06:43:33.539Z,100721.96
2023-05-10T06:46:00.500Z,100721.27
2023-05-10T06:48:27.374Z,100724.20
2023-05-10T06:50:54.167Z,100716.84
2023-05-10T06:53:21.037Z,100725.71
2023-05-10T06:55:47.834Z,100724.05
2023-05-10T06:58:14.848Z,100730.65
2023-05-10T07:00:44.676Z,100722.87
2023-05-10T07:03:12.151Z,100725.67
2023-05-10T07:05:39.457Z,100726.54
2023-05-10T07:08:06.476Z,100731.73
2023-05-10T07:10:33.989Z,100732.22
2023-05-10T07:13:02.480Z,100726.48
2023-05-10T07:15:29.839Z,100727.58
2023-05-10T07:17:57.027Z,100728.50
2023-05-10T07:20:24.120Z,100734.41
2023-05-10T07:22:51.059Z,100725.89
2023-05-10T07:25:17.993Z,100720.23
2023-05-10T07:27:45.064Z,100726.31
2023-05-10T07:30:12.892Z,100727.38
2023-05-10T07:32:40.700Z,100719.95
2023-05-10T07:35:08.382Z,100725.14
2023-05-10T07:37:35.448Z,100727.73
2023-05-10T07:40:02.250Z,100728.89
2023-05-10T07:42:29.145Z,100723.81
2023-05-10T07:44:56.063Z,100730.59
2023-05-10T07:47:23.021Z,100721.48
2023-05-10T07:49:50.048Z,100721.43
2023-05-10T07:52:16.884Z,100722.64
2023-05-10T07:54:43.676Z,100717.44
2023-05-10T07:57:10.692Z,100724.59
2023-05-10T07:59:37.960Z,100734.16
2023-05-10T08:02:04.778Z,100731.41
2023-05-10T08:04:31.601Z,100723.79
2023-05-10T08:06:58.478Z,100722.98
2023-05-10T08:09:25.608Z,100722.91
2023-05-10T08:11:52.650Z,100735.00
2023-05-10T08:14:19.475Z,100727.19
2023-05-10T08:16:46.467Z,100731.44
2023-05-10T08:19:13.420Z,100728.85
2023-05-10T08:21:43.222Z,100729.46
2023-05-10T08:24:10.069Z,100719.32
2023-05-10T08:26:37.132Z,100719.71
2023-05-10T08:29:04.046Z,100721.42
2023-05-10T08:31:30.882Z,100726.61
2023-05-10T08:33:57.924Z,100734.15
2023-05-10T08:36:25.548Z,100729.91
2023-05-10T08:38:55.746Z,100727.83
2023-05-10T08:41:22.952Z,100726.92
2023-05-10T08:43:54.084Z,100721.86
2023-05-10T08:46:22.121Z,100721.16
2023-05-10T08:48:50.296Z,100709.54
2023-05-10T08:51:19.377Z,100713.80
2023-05-10T08:53:46.802Z,100711.35
2023-05-10T08:56:13.623Z,100716.78
2023-05-10T08:58:40.490Z,100711.87
2023-05-10T09:01:07.331Z,100699.46
2023-05-10T09:03:34.210Z,100697.09
2023-05-10T09:06:01.180Z,100706.19
2023-05-10T09:08:28.223Z,100706.85
2023-05-10T09:10:58.024Z,100703.61
2023-05-10T09:13:25.412Z,100706.69
2023-05-10T09:15:52.309Z,100705.97
2023-05-10T09:18:19.364Z,100703.06
2023-05-10T09:20:46.549Z,100705.98
2023-05-10T09:23:13.389Z,100701.63
2023-05-10T09:25:40.474Z,100708.46
2023-05-10T09:28:08.837Z,100705.39
2023-05-10T09:30:36.174Z,100694.88
2023-05-10T09:33:03.416Z,100701.45
2023-05-10T09:35:31.885Z,100708.94
2023-05-10T09:38:01.458Z,100706.63
2023-05-10T09:40:29.094Z,100700.77
2023-05-10T09:43:07.492Z,100700.05
2023-05-10T09:45:37.784Z,100701.10
2023-05-10T09:48:06.430Z,100688.36
2023-05-10T09:50:33.382Z,100675.36
2023-05-10T09:53:01.804Z,100674.98
2023-05-10T09:55:42.726Z,100680.88
2023-05-10T09:59:37.205Z,100688.23
2023-05-10T10:02:04.232Z,100691.28
2023-05-10T10:04:31.359Z,100693.98
2023-05-10T10:07:05.109Z,100689.47
2023-05-10T10:09:32.547Z,100679.71
2023-05-10T10:12:00.853Z,100678.30
2023-05-10T10:14:27.679Z,100684.11
2023-05-10T10:17:06.542Z,100682.67
2023-05-10T10:19:35.461Z,100675.94
2023-05-10T10:22:02.357Z,100672.75
2023-05-10T10:24:29.532Z,100673.77
2023-05-10T10:26:58.339Z,100680.77
2023-05-10T10:29:42.858Z,100686.97
2023-05-10T10:32:09.666Z,100665.89
2023-05-10T10:34:36.767Z,100668.76
2023-05-10T10:37:07.685Z,100684.91
2023-05-10T10:39:37.749Z,100689.24
2023-05-10T10:42:05.179Z,100675.27
2023-05-10T10:44:34.582Z,100681.06
2023-05-10T10:47:09.726Z,100666.95
2023-05-10T10:49:42.838Z,100684.17
2023-05-10T10:52:28.008Z,100682.80
2023-05-10T10:54:58.130Z,100678.11
2023-05-10T10:57:27.701Z,100675.34
2023-05-10T11:00:26.035Z,100677.44
2023-05-10T11:02:53.713Z,100668.23
2023-05-10T11:05:47.797Z,100665.09
2023-05-10T11:08:16.069Z,100676.03
2023-05-10T11:11:15.737Z,100677.46
2023-05-10T11:13:51.487Z,100676.86
2023-05-10T11:16:25.661Z,100662.73
2023-05-10T11:19:16.537Z,100661.20
2023-05-10T11:22:16.422Z,100661.77
2023-05-10T11:24:57.403Z,100652.58
2023-05-10T11:27:24.264Z,100660.47
2023-05-10T11:29:54.230Z,100656.34
2023-05-10T11:32:20.997Z,100641.42
2023-05-10T11:34:49.314Z,100658.24
2023-05-10T11:37:16.192Z,100656.61
2023-05-10T11:39:46.889Z,100650.86
2023-05-10T11:42:13.937Z,100656.93
2023-05-10T11:44:41.893Z,100656.13
2023-05-10T11:47:09.145Z,100658.14
2023-05-10T11:49:36.041Z,100656.94
2023-05-10T11:52:07.797Z,100656.01
2023-05-10T11:54:36.141Z,100659.03
2023-05-10T11:57:03.038Z,100665.27
2023-05-10T11:59:30.018Z,100663.76
2023-05-10T12:01:56.825Z,100658.30
2023-05-10T12:04:23.661Z,100660.11
2023-05-10T12:06:50.753Z,100647.33
2023-05-10T12:09:19.210Z,100651.05
2023-05-10T12:11:50.102Z,100658.45
2023-05-10T12:14:16.929Z,100659.06
2023-05-10T12:16:44.457Z,100653.92
2023-05-10T12:19:11.925Z,100651.53
2023-05-10T12:21:40.171Z,100652.40
2023-05-10T12:24:07.664Z,100650.86
2023-05-10T12:26:35.868Z,100649.42
2023-05-10T12:29:21.443Z,100648.27
2023-05-10T12:31:53.717Z,100651.77
2023-05-10T12:34:39.737Z,100649.83
2023-05-10T12:37:06.755Z,100643.33
2023-05-10T12:39:44.328Z,100645.23
2023-05-10T12:42:11.430Z,100642.33
2023-05-10T12:44:38.477Z,100650.76
2023-05-10T12:47:05.536Z,100645.55
2023-05-10T12:49:32.366Z,100640.91
2023-05-10T12:51:59.221Z,100643.33
2023-05-10T12:54:26.396Z,100640.70
2023-05-10T12:56:53.696Z,100644.31
2023-05-10T12:59:21.057Z,100638.13
2023-05-10T13:01:48.102Z,100634.25
2023-05-10T13:04:15.107Z,100631.58
2023-05-10T13:06:42.189Z,100627.26
2023-05-10T13:09:09.103Z,100636.13
2023-05-10T13:11:36.319Z,100634.88
2023-05-10T13:14:04.589Z,100628.69
2023-05-10T13:16:31.898Z,100627.98
2023-05-10T13:18:59.735Z,100628.58
2023-05-10T13:21:26.961Z,100628.23
2023-05-10T13:23:54.281Z,100622.34
2023-05-10T13:26:21.449Z,100623.23
2023-05-10T13:28:50.021Z,100618.41
2023-05-10T13:31:16.963Z,100622.61
2023-05-10T13:33:44.031Z,100619.05
2023-05-10T13:36:11.091Z,100613.37
2023-05-10T13:38:38.487Z,100619.84
2023-05-10T13:41:05.733Z,100621.17
2023-05-10T13:43:32.760Z,100623.25
2023-05-10T13:45:59.833Z,100623.99
2023-05-10T13:48:26.830Z,100629.48
2023-05-10T13:50:53.749Z,100625.29
2023-05-10T13:53:20.754Z,100623.16
2023-05-10T13:55:48.357Z,100625.49
2023-05-10T13:58:15.262Z,100622.23
2023-05-10T14:00:42.070Z,100618.47
2023-05-10T14:03:12.407Z,100615.38
2023-05-10T14:05:39.787Z,100619.23
2023-05-10T14:08:06.755Z,100618.95
2023-05-10T14:10:33.689Z,100618.47
2023-05-10T14:13:00.731Z,100619.91
2023-05-10T14:15:27.553Z,100621.27
2023-05-10T14:17:54.534Z,100625.67
2023-05-10T14:20:21.567Z,100627.95
2023-05-10T14:22:48.515Z,100630.23
2023-05-10T14:25:15.911Z,100629.95
2023-05-10T14:27:43.220Z,100630.30
2023-05-10T14:30:11.279Z,100630.99
2023-05-10T14:32:38.490Z,100626.75
2023-05-10T14:35:07.254Z,100622.60
2023-05-10T14:37:34.476Z,100623.05
2023-05-10T14:40:01.742Z,100622.60
2023-05-10T14:42:29.585Z,100620.95
2023-05-10T14:44:56.460Z,100621.89
2023-05-10T14:47:23.695Z,100624.75
2023-05-10T14:49:50.666Z,100623.04
2023-05-10T14:52:18.614Z,100624.27
2023-05-10T14:54:45.569Z,100619.01
2023-05-10T14:57:12.408Z,100617.48
2023-05-10T14:59:39.358Z,100616.39
2023-05-10T15:02:09.427Z,100613.95
2023-05-10T15:04:36.980Z,100615.98
2023-05-10T15:07:04.288Z,100614.82
2023-05-10T15:09:31.458Z,100614.64
2023-05-10T15:11:58.344Z,100617.99
2023-05-10T15:14:25.367Z,100614.46
2023-05-10T15:16:52.290Z,100613.05
2023-05-10T15:19:19.210Z,100612.40
2023-05-10T15:21:48.062Z,100612.12
2023-05-10T15:24:15.948Z,100611.49
2023-05-10T15:26:42.962Z,100610.55
2023-05-10T15:29:09.948Z,100611.17
2023-05-10T15:31:37.114Z,100620.96
2023-05-10T15:34:04.217Z,100615.11
2023-05-10T15:36:32.820Z,100613.90
2023-05-10T15:38:59.730Z,100611.31
2023-05-10T15:41:26.540Z,100608.33
2023-05-10T15:43:54.540Z,100608.20
2023-05-10T15:46:21.733Z,100605.88
2023-05-10T15:48:48.733Z,100607.94
2023-05-10T15:51:16.090Z,100603.21
2023-05-10T15:53:53.100Z,100606.20
2023-05-10T15:56:23.712Z,100605.02
2023-05-10T15:58:50.574Z,100607.08
2023-05-10T16:01:17.962Z,100605.79
2023-05-10T16:03:44.897Z,100609.59
2023-05-10T16:06:11.800Z,100608.29
2023-05-10T16:08:38.759Z,100614.36
2023-05-10T16:11:05.761Z,100610.13
2023-05-10T16:13:32.614Z,100612.58
2023-05-10T16:16:00.331Z,100611.64
2023-05-10T16:18:27.661Z,100612.17
2023-05-10T16:20:54.678Z,100612.05
2023-05-10T16:23:22.006Z,100610.89
2023-05-10T16:25:49.025Z,100607.94
2023-05-10T16:28:15.992Z,100610.59
2023-05-10T16:30:42.931Z,100613.42
2023-05-10T16:33:09.997Z,100617.22
2023-05-10T16:35:36.962Z,100618.77
2023-05-10T16:38:04.267Z,100616.73
2023-05-10T16:40:32.596Z,100618.55
2023-05-10T16:42:59.418Z,100616.75
2023-05-10T16:45:27.155Z,100618.98
2023-05-10T16:47:54.144Z,100619.34
2023-05-10T16:50:21.381Z,100618.65
2023-05-10T16:52:48.279Z,100620.80
2023-05-10T16:55:15.267Z,100618.12
2023-05-10T16:57:42.351Z,100624.69
2023-05-10T17:00:12.064Z,100624.35
2023-05-10T17:02:39.583Z,100625.59
2023-05-10T17:05:07.332Z,100625.98
2023-05-10T17:07:34.707Z,100623.63
2023-05-10T17:10:01.546Z,100627.91
2023-05-10T17:12:28.477Z,100631.02
2023-05-10T17:14:55.320Z,100626.31
2023-05-10T17:17:24.064Z,100632.42
2023-05-10T17:19:51.500Z,100635.63
2023-05-10T17:22:18.443Z,100633.77
2023-05-10T17:24:45.972Z,100642.05
2023-05-10T17:27:12.793Z,100640.98
2023-05-10T17:29:39.728Z,100646.59
2023-05-10T17:32:09.332Z,100647.02
2023-05-10T17:34:37.330Z,100648.01
2023-05-10T17:37:04.297Z,100651.30
2023-05-10T17:39:31.403Z,100650.35
2023-05-10T17:41:58.320Z,100652.83
2023-05-10T17:44:26.124Z,100653.38
2023-05-10T17:46:53.106Z,100658.31
2023-05-10T17:49:19.971Z,100661.66
2023-05-10T17:51:49.763Z,100663.58
2023-05-10T17:54:16.585Z,100668.70
2023-05-10T17:56:43.690Z,100666.10
2023-05-10T17:59:10.663Z,100670.05
2023-05-10T18:01:37.626Z,100672.59
2023-05-10T18:04:04.714Z,100675.13
2023-05-10T18:06:32.506Z,100679.84
2023-05-10T18:08:59.659Z,100681.70
2023-05-10T18:11:26.885Z,100681.74
2023-05-10T18:13:54.324Z,100680.70
2023-05-10T18:16:21.641Z,100680.35
2023-05-10T18:18:49.142Z,100686.67
2023-05-10T18:21:17.959Z,100685.80
2023-05-10T18:23:44.829Z,100687.73
2023-05-10T18:26:12.124Z,100692.54
2023-05-10T18:28:39.093Z,100691.38
2023-05-10T18:31:05.983Z,100689.33
2023-05-10T18:33:32.917Z,100695.19
2023-05-10T18:36:00.935Z,100697.45
2023-05-10T18:38:27.793Z,100698.63
2023-05-10T18:40:54.737Z,100698.79
2023-05-10T18:43:21.776Z,100698.80
2023-05-10T18:45:48.867Z,100703.29
2023-05-10T18:48:15.875Z,100703.76
2023-05-10T18:50:42.797Z,100702.41
2023-05-10T18:53:09.669Z,100702.65
2023-05-10T18:55:36.539Z,100704.44
2023-05-10T18:58:03.465Z,100700.55
2023-05-10T19:00:30.692Z,100701.80
2023-05-10T19:02:57.655Z,100702.36
2023-05-10T19:05:30.337Z,100701.66
2023-05-10T19:07:57.320Z,100706.16
2023-05-10T19:10:24.343Z,100703.16
2023-05-10T19:12:51.181Z,100705.15
2023-05-10T19:15:20.120Z,100713.76
2023-05-10T19:17:50.976Z,100713.86
2023-05-10T19:20:18.506Z,100716.61
2023-05-10T19:23:01.899Z,100718.13
2023-05-10T19:25:35.307Z,100718.95
2023-05-10T19:28:02.740Z,100717.80
2023-05-10T19:30:32.099Z,100721.09
2023-05-10T19:32:58.990Z,100721.13
2023-05-10T19:35:25.954Z,100720.45
2023-05-10T19:37:53.345Z,100718.55
2023-05-10T19:40:20.163Z,100716.98
2023-05-10T19:42:47.325Z,100720.60
2023-05-10T19:45:15.925Z,100723.33
2023-05-10T19:47:43.534Z,100724.79
2023-05-10T19:50:12.634Z,100727.86
2023-05-10T19:52:39.578Z,100728.63
2023-05-10T19:55:07.368Z,100732.44
2023-05-10T19:57:34.364Z,100728.12
2023-05-10T20:00:01.427Z,100728.56
2023-05-10T20:02:28.283Z,100727.92
2023-05-10T20:04:55.249Z,100729.41
2023-05-10T20:07:22.098Z,100728.25
2023-05-10T20:09:49.145Z,100733.98
2023-05-10T20:12:15.930Z,100728.02
2023-05-10T20:14:42.771Z,100726.14
2023-05-10T20:17:09.582Z,100725.80
2023-05-10T20:19:36.476Z,100728.87
2023-05-10T20:22:05.469Z,100729.80
2023-05-10T20:24:32.467Z,100734.11
2023-05-10T20:26:59.327Z,100733.46
2023-05-10T20:29:26.606Z,100733.17
2023-05-10T20:31:53.456Z,100726.85
2023-05-10T20:34:20.997Z,100728.87
2023-05-10T20:36:47.822Z,100730.88
2023-05-10T20:39:15.221Z,100731.64
2023-05-10T20:41:42.768Z,100727.05
2023-05-10T20:44:09.686Z,100727.79
2023-05-10T20:46:36.910Z,100729.41
2023-05-10T20:49:04.880Z,100728.19
2023-05-10T20:51:33.423Z,100727.85
2023-05-10T20:54:02.689Z,100731.63
2023-05-10T20:56:29.525Z,100730.26
2023-05-10T20:58:56.587Z,100732.78
2023-05-10T21:01:23.676Z,100731.21
2023-05-10T21:03:50.571Z,100731.60
2023-05-10T21:06:17.546Z,100731.46
2023-05-10T21:08:44.409Z,100736.28
2023-05-10T21:11:11.335Z,100737.21
2023-05-10T21:13:38.130Z,100735.48
2023-05-10T21:16:05.104Z,100735.69
2023-05-10T21:18:32.066Z,100737.30
2023-05-10T21:20:58.867Z,100737.52
2023-05-10T21:23:25.687Z,100731.31
2023-05-10T21:25:52.551Z,100738.23
2023-05-10T21:28:19.355Z,100735.94
2023-05-10T21:30:46.379Z,100740.55
2023-05-10T21:33:13.792Z,100741.10
2023-05-10T21:35:43.061Z,100741.10
2023-05-10T21:38:10.156Z,100743.41
2023-05-10T21:40:38.068Z,100739.70
2023-05-10T21:43:04.903Z,100738.13
2023-05-10T21:45:33.104Z,100740.08
2023-05-10T21:48:00.421Z,100739.02
2023-05-10T21:50:27.600Z,100739.70
2023-05-10T21:52:55.709Z,100737.59
2023-05-10T21:55:22.840Z,100739.01
2023-05-10T21:57:50.265Z,100739.52
2023-05-10T22:00:19.234Z,100738.66
2023-05-10T22:02:46.977Z,100738.66
2023-05-10T22:05:14.002Z,100737.42
2023-05-10T22:07:40.920Z,100740.27
2023-05-10T22:10:09.200Z,100740.09
2023-05-10T22:12:36.163Z,100745.92
2023-05-10T22:17:22.562Z,100750.30
2023-05-10T22:19:49.374Z,100754.73
2023-05-10T22:22:16.253Z,100758.64
2023-05-10T22:24:43.141Z,100750.32
2023-05-10T22:27:09.963Z,100758.83
2023-05-10T22:29:37.397Z,100758.28
2023-05-10T22:32:06.094Z,100756.16
2023-05-10T22:34:33.500Z,100759.16
2023-05-10T22:37:00.359Z,100759.34
2023-05-10T22:39:27.474Z,100760.92
2023-05-10T22:41:54.381Z,100759.16
2023-05-10T22:44:21.163Z,100760.93
2023-05-10T22:46:47.981Z,100756.68
2023-05-10T22:49:14.952Z,100754.02
2023-05-10T22:51:42.179Z,100752.42
2023-05-10T22:54:09.012Z,100751.70
2023-05-10T22:56:35.990Z,100749.56
2023-05-10T22:59:02.796Z,100751.50
2023-05-10T23:01:29.951Z,100749.20
2023-05-10T23:03:56.810Z,100753.25
2023-05-10T23:06:23.614Z,100757.30
2023-05-10T23:08:50.404Z,100754.61
2023-05-10T23:11:17.513Z,100759.36
2023-05-10T23:13:44.766Z,100754.04
2023-05-10T23:16:11.862Z,100756.84
2023-05-10T23:18:39.713Z,100756.12
2023-05-10T23:21:06.785Z,100754.85
2023-05-10T23:23:34.675Z,100754.84
2023-05-10T23:26:01.984Z,100758.35
2023-05-10T23:28:28.827Z,100759.58
2023-05-10T23:30:56.902Z,100759.39
2023-05-10T23:33:24.401Z,100763.25
2023-05-10T23:35:51.212Z,100765.89
2023-05-10T23:38:18.017Z,100763.77
2023-05-10T23:40:48.999Z,100769.40
2023-05-10T23:43:17.807Z,100769.92
2023-05-10T23:45:57.445Z,100772.36
2023-05-10T23:48:24.444Z,100773.58
2023-05-10T23:50:51.257Z,100774.81
2023-05-10T23:53:18.167Z,100776.59
2023-05-10T23:55:45.758Z,100773.56
2023-05-10T23:58:12.655Z,100771.45
